This is the latest recevied weather packets stored in our database for station/object K4QXN. If no packets are shown the sender has not sent any weather packets the latest 10 day(s).
| Time | Temp. | Humidity | Pressure | Rain* | Wind** | Luminosity | Snow |
|---|---|---|---|---|---|---|---|
| 1777488516 | 27.78° C | 57% | 1007.7 hPa | 0 mm | - | - | - |
| 1777488214 | 27.78° C | 59% | 1008.1 hPa | 0 mm | - | - | - |
| 1777487912 | 27.78° C | 57% | 1007.7 hPa | 0 mm | - | - | - |
| 1777487611 | 27.78° C | 58% | 1007.7 hPa | 0 mm | - | - | - |
| 1777487309 | 27.22° C | 59% | 1008.1 hPa | 0 mm | - | - | - |
| 1777487007 | 27.22° C | 60% | 1008.4 hPa | 0 mm | - | - | - |
| 1777486706 | 27.78° C | 59% | 1008.4 hPa | 0 mm | - | - | - |
| 1777486404 | 26.67° C | 62% | 1008.4 hPa | 0 mm | - | - | - |
| 1777486102 | 27.22° C | 60% | 1008.4 hPa | 0 mm | - | - | - |
| 1777485800 | 26.67° C | 62% | 1008.4 hPa | 0 mm | - | - | - |
| 1777485498 | 26.67° C | 63% | 1008.8 hPa | 0 mm | - | - | - |
| 1777485196 | 26.67° C | 61% | 1009.1 hPa | 0 mm | - | - | - |
| 1777484895 | 27.78° C | 60% | 1008.8 hPa | 0 mm | - | - | - |
| 1777484593 | 26.67° C | 65% | 1008.8 hPa | 0 mm | - | - | - |
| 1777484291 | 26.11° C | 64% | 1009.1 hPa | 0 mm | - | - | - |
| 1777483688 | 26.11° C | 61% | 1009.1 hPa | 0 mm | - | - | - |
| 1777483386 | 26.11° C | 61% | 1009.1 hPa | 0 mm | - | - | - |
| 1777483084 | 26.67° C | 61% | 1009.1 hPa | 0 mm | - | - | - |
| 1777482782 | 26.11° C | 63% | 1009.1 hPa | 0 mm | - | - | - |
| 1777482178 | 25.56° C | 62% | 1009.4 hPa | 0 mm | - | - | - |
| 1777481877 | 26.11° C | 62% | 1009.4 hPa | 0 mm | - | - | - |
| 1777481575 | 25° C | 65% | 1009.4 hPa | 0 mm | - | - | - |
| 1777481273 | 25° C | 65% | 1009.8 hPa | 0 mm | - | - | - |
| 1777480972 | 25.56° C | 66% | 1009.8 hPa | 0 mm | - | - | - |
| 1777480670 | 26.11° C | 66% | 1009.8 hPa | 0 mm | - | - | - |
* Rain latest hour (hover to see other rain measurements)
** Current wind speed in m/s (hover to see current wind gust speed)